createdAt,value
2023-01-19T00:00:35.815Z,15.47
2023-01-19T00:03:04.755Z,14.40
2023-01-19T00:05:31.875Z,15.80
2023-01-19T00:08:14.430Z,17.03
2023-01-19T00:10:42.477Z,14.47
2023-01-19T00:13:09.145Z,16.97
2023-01-19T00:15:36.217Z,15.73
2023-01-19T00:18:02.887Z,13.13
2023-01-19T00:20:31.949Z,15.70
2023-01-19T00:22:59.264Z,13.47
2023-01-19T00:25:26.093Z,16.73
2023-01-19T00:27:52.822Z,18.27
2023-01-19T00:30:19.523Z,15.07
2023-01-19T00:32:46.181Z,17.33
2023-01-19T00:35:12.905Z,16.47
2023-01-19T00:37:39.548Z,17.90
2023-01-19T00:40:06.992Z,16.37
2023-01-19T00:42:45.907Z,16.13
2023-01-19T00:45:15.451Z,16.27
2023-01-19T00:47:42.526Z,16.53
2023-01-19T00:50:14.493Z,17.07
2023-01-19T00:52:41.764Z,16.40
2023-01-19T00:55:14.082Z,19.03
2023-01-19T00:57:41.934Z,16.17
2023-01-19T01:00:14.875Z,18.50
2023-01-19T01:02:44.016Z,19.17
2023-01-19T01:05:12.014Z,19.90
2023-01-19T01:07:44.468Z,20.00
2023-01-19T01:10:18.217Z,24.73
2023-01-19T01:12:57.049Z,19.17
2023-01-19T01:15:32.455Z,22.87
2023-01-19T01:17:59.072Z,19.80
2023-01-19T01:20:30.129Z,28.07
2023-01-19T01:22:57.386Z,20.43
2023-01-19T01:25:26.029Z,20.43
2023-01-19T01:27:53.539Z,22.33
2023-01-19T01:30:20.923Z,19.33
2023-01-19T01:32:47.959Z,22.27
2023-01-19T01:35:15.404Z,21.90
2023-01-19T01:37:45.240Z,20.63
2023-01-19T01:40:17.019Z,19.93
2023-01-19T01:42:43.857Z,19.37
2023-01-19T01:45:22.383Z,18.67
2023-01-19T01:47:50.624Z,18.63
2023-01-19T01:50:20.477Z,18.40
2023-01-19T01:53:06.940Z,18.27
2023-01-19T01:55:39.687Z,16.70
2023-01-19T01:58:10.468Z,18.50
2023-01-19T02:00:57.678Z,17.13
2023-01-19T02:03:26.443Z,18.47
2023-01-19T02:05:57.546Z,17.67
2023-01-19T02:09:06.274Z,15.80
2023-01-19T02:11:52.100Z,18.77
2023-01-19T02:14:21.729Z,19.47
2023-01-19T02:16:48.632Z,16.57
2023-01-19T02:19:24.607Z,15.60
2023-01-19T02:22:09.983Z,16.60
2023-01-19T02:24:37.093Z,17.33
2023-01-19T02:27:05.030Z,14.30
2023-01-19T02:29:33.780Z,18.60
2023-01-19T02:32:02.049Z,18.73
2023-01-19T02:34:29.732Z,18.33
2023-01-19T02:37:06.559Z,20.70
2023-01-19T02:39:36.361Z,16.77
2023-01-19T02:42:08.069Z,16.57
2023-01-19T02:44:36.276Z,15.83
2023-01-19T02:47:04.436Z,15.80
2023-01-19T02:49:31.456Z,17.40
2023-01-19T02:52:00.563Z,17.23
2023-01-19T02:54:42.875Z,17.97
2023-01-19T02:57:28.949Z,22.17
2023-01-19T03:00:21.855Z,17.70
2023-01-19T03:03:03.074Z,17.93
2023-01-19T03:05:51.265Z,17.30
2023-01-19T03:08:39.462Z,13.93
2023-01-19T03:11:09.947Z,16.00
2023-01-19T03:13:56.283Z,16.47
2023-01-19T03:16:35.707Z,17.80
2023-01-19T03:19:09.415Z,17.70
2023-01-19T03:21:37.603Z,17.00
2023-01-19T03:24:08.084Z,15.10
2023-01-19T03:26:43.916Z,16.43
2023-01-19T03:29:13.533Z,14.37
2023-01-19T03:31:43.183Z,18.43
2023-01-19T03:34:11.891Z,15.50
2023-01-19T03:36:44.531Z,13.90
2023-01-19T03:39:14.318Z,19.77
2023-01-19T03:41:42.880Z,14.77
2023-01-19T03:44:12.102Z,18.27
2023-01-19T03:46:39.802Z,14.80
2023-01-19T03:49:07.662Z,18.70
2023-01-19T03:51:38.942Z,15.17
2023-01-19T03:54:06.755Z,14.53
2023-01-19T03:56:33.885Z,14.77
2023-01-19T03:59:00.628Z,15.03
2023-01-19T04:01:27.365Z,14.80
2023-01-19T04:03:54.551Z,14.23
2023-01-19T04:06:21.573Z,16.43
2023-01-19T04:08:49.836Z,13.03
2023-01-19T04:11:16.528Z,17.37
2023-01-19T04:13:43.596Z,14.17
2023-01-19T04:16:11.132Z,13.87
2023-01-19T04:18:38.278Z,12.37
2023-01-19T04:21:07.586Z,14.80
2023-01-19T04:23:34.894Z,15.60
2023-01-19T04:26:03.805Z,15.93
2023-01-19T04:28:31.065Z,15.70
2023-01-19T04:30:57.927Z,15.57
2023-01-19T04:33:25.384Z,13.30
2023-01-19T04:35:54.441Z,13.90
2023-01-19T04:38:22.527Z,14.60
2023-01-19T04:40:50.484Z,14.80
2023-01-19T04:43:17.219Z,15.73
2023-01-19T04:45:46.987Z,14.20
2023-01-19T04:48:14.466Z,17.00
2023-01-19T04:50:41.939Z,16.93
2023-01-19T04:53:09.144Z,13.23
2023-01-19T04:55:38.572Z,14.20
2023-01-19T04:58:05.242Z,16.17
2023-01-19T05:00:31.936Z,15.43
2023-01-19T05:02:58.691Z,17.73
2023-01-19T05:05:27.242Z,16.03
2023-01-19T05:07:54.680Z,15.93
2023-01-19T05:10:21.448Z,14.87
2023-01-19T05:12:48.121Z,15.17
2023-01-19T05:15:14.865Z,19.00
2023-01-19T05:17:41.712Z,17.70
2023-01-19T05:20:10.942Z,19.23
2023-01-19T05:22:39.133Z,19.13
2023-01-19T05:25:08.696Z,16.53
2023-01-19T05:27:36.335Z,15.73
2023-01-19T05:30:05.049Z,18.37
2023-01-19T05:32:31.664Z,17.17
2023-01-19T05:34:58.410Z,16.33
2023-01-19T05:37:25.058Z,17.10
2023-01-19T05:39:51.908Z,16.17
2023-01-19T05:42:18.671Z,16.03
2023-01-19T05:44:45.272Z,18.10
2023-01-19T05:47:11.878Z,17.90
2023-01-19T05:49:38.462Z,16.53
2023-01-19T05:52:05.085Z,16.50
2023-01-19T05:54:31.699Z,18.33
2023-01-19T05:56:58.359Z,15.87
2023-01-19T05:59:25.029Z,15.37
2023-01-19T06:01:52.199Z,15.03
2023-01-19T06:04:19.872Z,19.10
2023-01-19T06:06:52.673Z,19.83
2023-01-19T06:09:19.318Z,15.53
2023-01-19T06:11:46.634Z,19.90
2023-01-19T06:14:13.495Z,16.00
2023-01-19T06:16:40.484Z,16.50
2023-01-19T06:19:07.196Z,17.33
2023-01-19T06:21:34.323Z,16.97
2023-01-19T06:24:00.956Z,19.57
2023-01-19T06:26:27.705Z,18.37
2023-01-19T06:28:54.400Z,18.53
2023-01-19T06:31:21.351Z,17.30
2023-01-19T06:33:47.984Z,15.97
2023-01-19T06:36:14.712Z,14.67
2023-01-19T06:38:41.569Z,14.43
2023-01-19T06:41:08.246Z,17.67
2023-01-19T06:43:34.897Z,16.53
2023-01-19T06:46:02.253Z,15.10
2023-01-19T06:48:28.980Z,14.77
2023-01-19T06:50:58.457Z,15.57
2023-01-19T06:53:27.672Z,17.33
2023-01-19T06:55:57.930Z,16.43
2023-01-19T06:58:25.163Z,16.03
2023-01-19T07:00:52.145Z,18.93
2023-01-19T07:03:21.660Z,20.67
2023-01-19T07:05:52.273Z,18.17
2023-01-19T07:08:18.923Z,19.17
2023-01-19T07:11:26.056Z,16.20
2023-01-19T07:13:36.583Z,19.77
2023-01-19T07:16:07.462Z,17.67
2023-01-19T07:18:35.342Z,15.70
2023-01-19T07:21:01.949Z,13.93
2023-01-19T07:23:30.293Z,17.97
2023-01-19T07:26:01.699Z,15.90
2023-01-19T07:28:33.480Z,14.70
2023-01-19T07:31:00.303Z,18.33
2023-01-19T07:33:27.300Z,15.60
2023-01-19T07:35:54.647Z,15.07
2023-01-19T07:38:21.362Z,19.93
2023-01-19T07:40:47.996Z,18.57
2023-01-19T07:43:15.161Z,16.17
2023-01-19T07:45:42.696Z,18.73
2023-01-19T07:48:09.403Z,16.47
2023-01-19T07:50:36.061Z,15.63
2023-01-19T07:53:07.391Z,15.60
2023-01-19T07:55:34.627Z,15.50
2023-01-19T07:58:03.850Z,13.10
2023-01-19T08:00:30.558Z,15.37
2023-01-19T08:03:00.925Z,15.17
2023-01-19T08:05:31.109Z,17.23
2023-01-19T08:07:58.731Z,14.23
2023-01-19T08:10:27.617Z,17.47
2023-01-19T08:12:55.115Z,16.53
2023-01-19T08:15:23.991Z,16.60
2023-01-19T08:17:57.339Z,13.87
2023-01-19T08:20:24.866Z,14.07
2023-01-19T08:22:59.725Z,16.23
2023-01-19T08:25:34.332Z,16.17
2023-01-19T08:28:01.505Z,16.30
2023-01-19T08:30:28.234Z,17.40
2023-01-19T08:32:57.971Z,15.67
2023-01-19T08:35:24.797Z,16.47
2023-01-19T08:37:51.533Z,15.90
2023-01-19T08:40:18.343Z,14.37
2023-01-19T08:42:45.595Z,17.20
2023-01-19T08:45:12.287Z,15.70
2023-01-19T08:47:38.909Z,15.57
2023-01-19T08:50:05.984Z,17.40
2023-01-19T08:52:32.633Z,17.50
2023-01-19T08:54:59.737Z,15.93
2023-01-19T08:57:27.442Z,16.83
2023-01-19T08:59:54.066Z,19.10
2023-01-19T09:02:20.835Z,16.23
2023-01-19T09:04:47.477Z,14.93
2023-01-19T09:07:14.117Z,12.60
2023-01-19T09:09:43.354Z,13.00
2023-01-19T09:12:09.996Z,9.90
2023-01-19T09:14:36.642Z,14.70
2023-01-19T09:17:03.787Z,12.43
2023-01-19T09:19:30.437Z,14.10
2023-01-19T09:21:59.035Z,10.70
2023-01-19T09:24:25.893Z,11.97
2023-01-19T09:26:52.510Z,11.50
2023-01-19T09:29:19.224Z,10.43
2023-01-19T09:31:45.959Z,9.20
2023-01-19T09:34:12.711Z,12.23
2023-01-19T09:36:39.915Z,12.73
2023-01-19T09:39:06.630Z,12.37
2023-01-19T09:41:36.300Z,10.63
2023-01-19T09:44:03.647Z,11.43
2023-01-19T09:46:36.820Z,9.77
2023-01-19T09:49:16.994Z,11.17
2023-01-19T09:51:46.928Z,11.03
2023-01-19T09:54:15.711Z,10.40
2023-01-19T09:56:48.552Z,11.27
2023-01-19T09:59:25.621Z,9.67
2023-01-19T10:01:58.253Z,12.10
2023-01-19T10:04:27.860Z,11.37
2023-01-19T10:07:09.251Z,10.93
2023-01-19T10:09:54.680Z,16.77
2023-01-19T10:12:38.454Z,9.93
2023-01-19T10:15:21.321Z,8.03
2023-01-19T10:18:13.003Z,9.53
2023-01-19T10:20:48.260Z,10.73
2023-01-19T10:23:50.873Z,15.97
2023-01-19T10:26:24.624Z,9.97
2023-01-19T10:29:07.784Z,9.30
2023-01-19T10:31:37.691Z,10.20
2023-01-19T10:34:04.546Z,13.17
2023-01-19T10:36:38.132Z,10.97
2023-01-19T10:39:06.031Z,11.00
2023-01-19T10:41:43.729Z,10.57
2023-01-19T10:44:12.003Z,9.17
2023-01-19T10:46:42.129Z,8.10
2023-01-19T10:49:26.608Z,8.73
2023-01-19T10:51:54.434Z,10.47
2023-01-19T10:54:22.017Z,7.70
2023-01-19T10:56:55.538Z,6.53
2023-01-19T10:59:50.862Z,7.77
2023-01-19T11:02:27.587Z,10.10
2023-01-19T11:05:00.952Z,8.30
2023-01-19T11:07:30.450Z,5.63
2023-01-19T11:10:24.103Z,4.00
2023-01-19T11:13:15.756Z,3.90
2023-01-19T11:15:57.466Z,6.30
2023-01-19T11:18:27.725Z,7.40
2023-01-19T11:20:56.608Z,4.50
2023-01-19T11:23:27.872Z,4.83
2023-01-19T11:26:01.442Z,5.87
2023-01-19T11:28:40.411Z,5.67
2023-01-19T11:31:16.040Z,7.87
2023-01-19T11:33:52.474Z,4.13
2023-01-19T11:36:37.476Z,4.07
2023-01-19T11:39:23.687Z,5.97
2023-01-19T11:41:54.667Z,4.30
2023-01-19T11:44:33.975Z,5.30
2023-01-19T11:47:05.057Z,7.00
2023-01-19T11:50:02.702Z,7.87
2023-01-19T11:52:43.097Z,6.80
2023-01-19T11:55:23.209Z,5.50
2023-01-19T11:57:54.231Z,4.63
2023-01-19T12:00:25.925Z,5.47
2023-01-19T12:03:00.496Z,4.67
2023-01-19T12:05:32.060Z,7.60
2023-01-19T12:08:05.499Z,5.43
2023-01-19T12:10:41.581Z,5.47
2023-01-19T12:13:17.273Z,6.13
2023-01-19T12:15:45.793Z,6.10
2023-01-19T12:18:19.759Z,6.53
2023-01-19T12:20:55.123Z,5.00
2023-01-19T12:23:49.172Z,8.00
2023-01-19T12:26:38.453Z,6.40
2023-01-19T12:29:19.890Z,6.17
2023-01-19T12:32:19.195Z,6.70
2023-01-19T12:34:52.161Z,4.57
2023-01-19T12:37:30.486Z,4.53
2023-01-19T12:40:00.139Z,5.73
2023-01-19T12:42:29.091Z,8.07
2023-01-19T12:45:21.137Z,6.37
2023-01-19T12:47:53.231Z,4.60
2023-01-19T12:50:23.453Z,6.27
2023-01-19T12:52:57.293Z,6.23
2023-01-19T12:55:36.245Z,7.43
2023-01-19T12:58:23.498Z,5.47
2023-01-19T13:01:11.097Z,6.33
2023-01-19T13:03:58.620Z,6.50
2023-01-19T13:06:49.394Z,6.93
2023-01-19T13:09:36.913Z,5.23
2023-01-19T13:12:22.766Z,5.93
2023-01-19T13:14:50.764Z,3.73
2023-01-19T13:17:50.426Z,4.50
2023-01-19T13:20:24.174Z,6.03
2023-01-19T13:22:55.667Z,17.20
2023-01-19T13:25:35.400Z,10.80
2023-01-19T13:28:06.569Z,5.30
2023-01-19T13:30:35.000Z,7.77
2023-01-19T13:33:17.678Z,6.87
2023-01-19T13:35:54.002Z,5.13
2023-01-19T13:38:22.434Z,7.23
2023-01-19T13:40:49.671Z,5.10
2023-01-19T13:43:21.100Z,6.63
2023-01-19T13:45:53.292Z,6.33
2023-01-19T13:48:24.923Z,7.10
2023-01-19T13:51:04.247Z,7.13
2023-01-19T13:53:31.096Z,8.50
2023-01-19T13:56:06.722Z,8.97
2023-01-19T13:58:33.502Z,6.83
2023-01-19T14:01:00.157Z,6.40
2023-01-19T14:03:27.048Z,6.17
2023-01-19T14:05:54.894Z,9.70
2023-01-19T14:08:23.400Z,4.83
2023-01-19T14:11:02.167Z,5.03
2023-01-19T14:13:32.107Z,5.80
2023-01-19T14:16:07.481Z,5.40
2023-01-19T14:18:37.209Z,8.87
2023-01-19T14:21:08.099Z,5.53
2023-01-19T14:23:50.962Z,7.10
2023-01-19T14:26:52.889Z,6.80
2023-01-19T14:29:19.654Z,7.23
2023-01-19T14:31:49.348Z,7.13
2023-01-19T14:34:31.228Z,8.30
2023-01-19T14:36:58.795Z,7.50
2023-01-19T14:39:27.716Z,5.73
2023-01-19T14:41:57.376Z,9.13
2023-01-19T14:44:38.495Z,5.43
2023-01-19T14:47:06.838Z,9.30
2023-01-19T14:49:36.420Z,6.37
2023-01-19T14:52:07.274Z,6.50
2023-01-19T14:54:42.684Z,6.53
2023-01-19T14:57:13.403Z,5.30
2023-01-19T14:59:41.114Z,7.90
2023-01-19T15:02:09.115Z,5.43
2023-01-19T15:04:35.834Z,5.83
2023-01-19T15:07:02.465Z,5.40
2023-01-19T15:09:29.227Z,6.17
2023-01-19T15:11:56.056Z,6.53
2023-01-19T15:14:23.196Z,5.70
2023-01-19T15:16:50.323Z,7.33
2023-01-19T15:19:17.583Z,7.13
2023-01-19T15:21:46.773Z,8.43
2023-01-19T15:24:15.836Z,11.73
2023-01-19T15:26:43.836Z,4.90
2023-01-19T15:29:25.316Z,9.00
2023-01-19T15:31:53.013Z,5.90
2023-01-19T15:34:19.789Z,6.93
2023-01-19T15:36:46.418Z,7.90
2023-01-19T15:39:28.117Z,6.90
2023-01-19T15:41:54.783Z,10.03
2023-01-19T15:44:21.488Z,10.93
2023-01-19T15:46:48.156Z,6.33
2023-01-19T15:49:14.823Z,6.33
2023-01-19T15:51:41.661Z,9.10
2023-01-19T15:54:14.584Z,6.00
2023-01-19T15:56:42.536Z,7.57
2023-01-19T15:59:12.095Z,7.10
2023-01-19T16:01:40.116Z,5.70
2023-01-19T16:04:10.991Z,7.33
2023-01-19T16:06:38.024Z,10.40
2023-01-19T16:09:04.939Z,8.27
2023-01-19T16:11:33.487Z,8.00
2023-01-19T16:14:00.657Z,8.60
2023-01-19T16:16:30.831Z,9.47
2023-01-19T16:18:57.713Z,7.40
2023-01-19T16:21:25.040Z,8.37
2023-01-19T16:23:52.245Z,6.27
2023-01-19T16:26:34.279Z,8.33
2023-01-19T16:29:08.551Z,11.93
2023-01-19T16:31:36.171Z,7.10
2023-01-19T16:34:02.974Z,8.63
2023-01-19T16:36:32.269Z,7.83
2023-01-19T16:39:01.157Z,7.73
2023-01-19T16:41:28.381Z,11.33
2023-01-19T16:43:56.698Z,7.67
2023-01-19T16:46:26.482Z,8.90
2023-01-19T16:48:53.408Z,9.83
2023-01-19T16:51:20.340Z,10.73
2023-01-19T16:53:49.952Z,14.40
2023-01-19T16:56:17.303Z,10.33
2023-01-19T16:58:44.114Z,9.87
2023-01-19T17:01:17.300Z,9.37
2023-01-19T17:03:46.198Z,10.37
2023-01-19T17:06:15.260Z,9.83
2023-01-19T17:08:42.239Z,7.53
2023-01-19T17:11:12.649Z,11.17
2023-01-19T17:13:39.461Z,9.33
2023-01-19T17:16:07.369Z,10.37
2023-01-19T17:18:36.765Z,10.27
2023-01-19T17:21:05.741Z,10.73
2023-01-19T17:23:33.351Z,10.57
2023-01-19T17:26:00.613Z,9.17
2023-01-19T17:28:28.013Z,7.97
2023-01-19T17:30:54.848Z,8.83
2023-01-19T17:33:23.791Z,10.43
2023-01-19T17:35:50.941Z,10.33
2023-01-19T17:38:17.685Z,8.33
2023-01-19T17:40:44.362Z,8.67
2023-01-19T17:43:10.987Z,9.13
2023-01-19T17:45:37.852Z,8.13
2023-01-19T17:48:06.405Z,8.13
2023-01-19T17:50:37.014Z,7.67
2023-01-19T17:53:04.519Z,12.37
2023-01-19T17:55:34.083Z,8.00
2023-01-19T17:58:01.136Z,7.53
2023-01-19T18:00:28.551Z,8.70
2023-01-19T18:02:55.648Z,8.07
2023-01-19T18:05:23.289Z,9.23
2023-01-19T18:07:50.000Z,9.13
2023-01-19T18:10:17.365Z,9.40
2023-01-19T18:12:45.185Z,9.67
2023-01-19T18:15:12.305Z,10.87
2023-01-19T18:17:38.953Z,9.97
2023-01-19T18:20:06.034Z,8.20
2023-01-19T18:22:33.381Z,8.03
2023-01-19T18:25:01.592Z,10.40
2023-01-19T18:27:29.171Z,8.90
2023-01-19T18:29:56.115Z,12.73
2023-01-19T18:32:22.832Z,10.47
2023-01-19T18:34:51.964Z,8.27
2023-01-19T18:37:18.669Z,11.00
2023-01-19T18:39:45.368Z,11.67
2023-01-19T18:42:12.022Z,9.20
2023-01-19T18:44:38.676Z,9.03
2023-01-19T18:47:08.197Z,10.20
2023-01-19T18:49:34.933Z,7.07
2023-01-19T18:52:03.713Z,7.93
2023-01-19T18:54:30.463Z,10.90
2023-01-19T18:56:57.107Z,9.57
2023-01-19T18:59:23.716Z,8.37
2023-01-19T19:01:50.516Z,7.47
2023-01-19T19:04:17.207Z,9.63
2023-01-19T19:06:47.805Z,9.87
2023-01-19T19:09:14.463Z,8.80
2023-01-19T19:11:41.076Z,10.33
2023-01-19T19:14:09.139Z,9.20
2023-01-19T19:16:38.089Z,7.57
2023-01-19T19:19:07.128Z,9.07
2023-01-19T19:21:33.815Z,8.83
2023-01-19T19:24:00.503Z,7.53
2023-01-19T19:26:28.313Z,7.83
2023-01-19T19:28:55.310Z,7.83
2023-01-19T19:31:23.268Z,7.63
2023-01-19T19:33:50.916Z,10.63
2023-01-19T19:36:19.765Z,7.83
2023-01-19T19:38:47.519Z,8.07
2023-01-19T19:41:20.201Z,8.07
2023-01-19T19:43:46.856Z,7.67
2023-01-19T19:46:16.317Z,11.50
2023-01-19T19:48:43.045Z,8.93
2023-01-19T19:51:19.297Z,8.23
2023-01-19T19:53:48.435Z,9.93
2023-01-19T19:56:20.911Z,11.27
2023-01-19T19:58:48.361Z,11.10
2023-01-19T20:01:31.308Z,8.37
2023-01-19T20:04:07.859Z,8.23
2023-01-19T20:06:38.553Z,9.70
2023-01-19T20:09:06.581Z,8.67
2023-01-19T20:11:33.569Z,8.33
2023-01-19T20:14:00.893Z,8.20
2023-01-19T20:16:27.627Z,10.00
2023-01-19T20:18:54.434Z,8.37
2023-01-19T20:21:27.369Z,9.97
2023-01-19T20:23:55.307Z,12.60
2023-01-19T20:26:29.389Z,7.70
2023-01-19T20:29:10.056Z,8.07
2023-01-19T20:31:44.562Z,9.20
2023-01-19T20:34:13.230Z,10.43
2023-01-19T20:36:41.081Z,9.23
2023-01-19T20:39:11.228Z,9.60
2023-01-19T20:41:43.340Z,12.90
2023-01-19T20:44:15.288Z,9.90
2023-01-19T20:46:42.440Z,10.60
2023-01-19T20:49:09.125Z,9.63
2023-01-19T20:51:38.526Z,9.30
2023-01-19T20:54:05.325Z,12.77
2023-01-19T20:56:32.088Z,7.47
2023-01-19T20:58:59.621Z,9.73
2023-01-19T21:01:26.591Z,9.73
2023-01-19T21:03:53.485Z,11.73
2023-01-19T21:06:21.692Z,11.03
2023-01-19T21:08:51.695Z,12.37
2023-01-19T21:11:20.897Z,10.87
2023-01-19T21:13:48.825Z,9.83
2023-01-19T21:16:15.840Z,10.30
2023-01-19T21:18:42.731Z,14.37
2023-01-19T21:21:20.899Z,10.70
2023-01-19T21:24:02.579Z,13.17
2023-01-19T21:26:30.190Z,12.00
2023-01-19T21:29:01.115Z,12.97
2023-01-19T21:31:28.482Z,14.87
2023-01-19T21:33:59.392Z,10.00
2023-01-19T21:36:26.633Z,11.30
2023-01-19T21:39:03.322Z,11.27
2023-01-19T21:41:30.281Z,10.87
2023-01-19T21:44:00.143Z,13.20
2023-01-19T21:46:29.342Z,12.23
2023-01-19T21:48:58.158Z,8.97
2023-01-19T21:51:25.622Z,10.30
2023-01-19T21:53:56.044Z,12.90
2023-01-19T21:56:23.093Z,12.07
2023-01-19T21:58:49.834Z,15.37
2023-01-19T22:01:16.616Z,15.57
2023-01-19T22:03:46.484Z,9.67
2023-01-19T22:06:14.472Z,9.67
2023-01-19T22:08:41.876Z,9.73
2023-01-19T22:11:10.922Z,12.03
2023-01-19T22:13:41.501Z,10.17
2023-01-19T22:16:11.892Z,9.80
2023-01-19T22:18:40.565Z,11.57
2023-01-19T22:21:21.573Z,10.43
2023-01-19T22:23:53.075Z,9.13
2023-01-19T22:26:19.789Z,10.40
2023-01-19T22:28:46.493Z,9.80
2023-01-19T22:31:16.013Z,8.43
2023-01-19T22:33:43.186Z,9.90
2023-01-19T22:36:23.200Z,10.30
2023-01-19T22:38:58.146Z,11.30
2023-01-19T22:41:36.534Z,10.97
2023-01-19T22:44:07.033Z,12.83
2023-01-19T22:46:35.616Z,10.67
2023-01-19T22:49:02.966Z,13.57
2023-01-19T22:51:31.123Z,14.53
2023-01-19T22:53:58.130Z,12.03
2023-01-19T22:56:29.829Z,10.97
2023-01-19T22:58:57.283Z,10.53
2023-01-19T23:01:33.398Z,12.60
2023-01-19T23:04:02.319Z,11.20
2023-01-19T23:06:31.296Z,10.70
2023-01-19T23:09:00.953Z,15.83
2023-01-19T23:11:36.083Z,13.97
2023-01-19T23:14:04.201Z,10.63
2023-01-19T23:16:30.899Z,13.90
2023-01-19T23:18:58.725Z,12.37
2023-01-19T23:21:28.211Z,14.97
2023-01-19T23:23:56.811Z,13.30
2023-01-19T23:26:24.303Z,11.60
2023-01-19T23:28:59.443Z,14.27
2023-01-19T23:31:31.307Z,11.60
2023-01-19T23:34:01.739Z,11.20
2023-01-19T23:36:30.668Z,11.43
2023-01-19T23:38:59.763Z,11.07
2023-01-19T23:41:30.399Z,11.53
2023-01-19T23:43:57.035Z,11.90
2023-01-19T23:46:24.125Z,12.63
2023-01-19T23:48:50.797Z,16.37
2023-01-19T23:51:20.869Z,11.90
2023-01-19T23:53:48.035Z,11.40
2023-01-19T23:56:29.242Z,13.07
2023-01-19T23:59:02.451Z,13.03
